sensor_id;sensor_type;location;lat;lon;timestamp;P1;durP1;ratioP1;P2;durP2;ratioP2
23496;SDS011;11925;48.122;11.560;2023-02-22T00:02:04;9.68;;;6.43;;
23496;SDS011;11925;48.122;11.560;2023-02-22T00:04:50;11.48;;;6.43;;
23496;SDS011;11925;48.122;11.560;2023-02-22T00:07:19;13.02;;;6.82;;
23496;SDS011;11925;48.122;11.560;2023-02-22T00:09:50;11.20;;;7.13;;
23496;SDS011;11925;48.122;11.560;2023-02-22T00:12:18;11.45;;;6.60;;
23496;SDS011;11925;48.122;11.560;2023-02-22T00:14:47;11.30;;;6.75;;
23496;SDS011;11925;48.122;11.560;2023-02-22T00:17:16;11.60;;;6.85;;
23496;SDS011;11925;48.122;11.560;2023-02-22T00:19:47;11.43;;;7.32;;
23496;SDS011;11925;48.122;11.560;2023-02-22T00:22:15;9.80;;;5.88;;
23496;SDS011;11925;48.122;11.560;2023-02-22T00:24:44;11.05;;;5.50;;
23496;SDS011;11925;48.122;11.560;2023-02-22T00:27:15;9.82;;;5.35;;
23496;SDS011;11925;48.122;11.560;2023-02-22T00:29:43;11.98;;;5.78;;
23496;SDS011;11925;48.122;11.560;2023-02-22T00:32:12;10.20;;;5.07;;
23496;SDS011;11925;48.122;11.560;2023-02-22T00:34:40;9.38;;;5.00;;
23496;SDS011;11925;48.122;11.560;2023-02-22T00:37:10;12.55;;;5.13;;
23496;SDS011;11925;48.122;11.560;2023-02-22T00:39:38;9.90;;;5.43;;
23496;SDS011;11925;48.122;11.560;2023-02-22T00:42:06;10.82;;;5.22;;
23496;SDS011;11925;48.122;11.560;2023-02-22T00:44:36;7.95;;;4.20;;
23496;SDS011;11925;48.122;11.560;2023-02-22T00:47:05;8.07;;;4.95;;
23496;SDS011;11925;48.122;11.560;2023-02-22T00:49:34;8.40;;;5.05;;
23496;SDS011;11925;48.122;11.560;2023-02-22T00:52:02;6.78;;;4.28;;
23496;SDS011;11925;48.122;11.560;2023-02-22T00:54:31;9.68;;;4.20;;
23496;SDS011;11925;48.122;11.560;2023-02-22T00:56:59;8.95;;;4.15;;
23496;SDS011;11925;48.122;11.560;2023-02-22T00:59:27;9.90;;;4.57;;
23496;SDS011;11925;48.122;11.560;2023-02-22T01:01:57;7.13;;;4.20;;
23496;SDS011;11925;48.122;11.560;2023-02-22T01:04:26;7.45;;;3.70;;
23496;SDS011;11925;48.122;11.560;2023-02-22T01:06:54;5.97;;;3.70;;
23496;SDS011;11925;48.122;11.560;2023-02-22T01:09:26;8.75;;;3.92;;
23496;SDS011;11925;48.122;11.560;2023-02-22T01:11:54;5.70;;;3.50;;
23496;SDS011;11925;48.122;11.560;2023-02-22T01:14:23;4.90;;;3.20;;
23496;SDS011;11925;48.122;11.560;2023-02-22T01:16:53;5.53;;;3.38;;
23496;SDS011;11925;48.122;11.560;2023-02-22T01:19:24;6.90;;;3.15;;
23496;SDS011;11925;48.122;11.560;2023-02-22T01:21:52;5.15;;;3.45;;
23496;SDS011;11925;48.122;11.560;2023-02-22T01:24:20;5.18;;;3.35;;
23496;SDS011;11925;48.122;11.560;2023-02-22T01:26:49;4.88;;;3.03;;
23496;SDS011;11925;48.122;11.560;2023-02-22T01:29:19;5.95;;;3.80;;
23496;SDS011;11925;48.122;11.560;2023-02-22T01:31:51;6.68;;;3.35;;
23496;SDS011;11925;48.122;11.560;2023-02-22T01:34:21;5.75;;;3.90;;
23496;SDS011;11925;48.122;11.560;2023-02-22T01:36:52;6.67;;;3.60;;
23496;SDS011;11925;48.122;11.560;2023-02-22T01:39:20;6.57;;;3.15;;
23496;SDS011;11925;48.122;11.560;2023-02-22T01:41:49;7.28;;;3.63;;
23496;SDS011;11925;48.122;11.560;2023-02-22T01:44:21;7.53;;;3.75;;
23496;SDS011;11925;48.122;11.560;2023-02-22T01:46:54;6.60;;;3.28;;
23496;SDS011;11925;48.122;11.560;2023-02-22T01:49:24;6.25;;;3.58;;
23496;SDS011;11925;48.122;11.560;2023-02-22T01:51:56;5.97;;;3.38;;
23496;SDS011;11925;48.122;11.560;2023-02-22T01:54:30;8.63;;;3.75;;
23496;SDS011;11925;48.122;11.560;2023-02-22T01:57:02;8.48;;;3.67;;
23496;SDS011;11925;48.122;11.560;2023-02-22T01:59:39;5.68;;;3.63;;
23496;SDS011;11925;48.122;11.560;2023-02-22T02:02:13;5.70;;;2.78;;
23496;SDS011;11925;48.122;11.560;2023-02-22T02:04:44;8.13;;;3.63;;
23496;SDS011;11925;48.122;11.560;2023-02-22T02:07:13;6.82;;;3.30;;
23496;SDS011;11925;48.122;11.560;2023-02-22T02:09:50;5.50;;;3.03;;
23496;SDS011;11925;48.122;11.560;2023-02-22T02:12:23;8.07;;;3.15;;
23496;SDS011;11925;48.122;11.560;2023-02-22T02:17:44;5.70;;;2.97;;
23496;SDS011;11925;48.122;11.560;2023-02-22T02:20:18;3.90;;;2.63;;
23496;SDS011;11925;48.122;11.560;2023-02-22T02:22:54;4.10;;;2.88;;
23496;SDS011;11925;48.122;11.560;2023-02-22T02:28:57;5.95;;;2.92;;
23496;SDS011;11925;48.122;11.560;2023-02-22T02:31:54;5.30;;;2.35;;
23496;SDS011;11925;48.122;11.560;2023-02-22T02:34:31;5.90;;;2.50;;
23496;SDS011;11925;48.122;11.560;2023-02-22T02:37:04;6.65;;;2.85;;
23496;SDS011;11925;48.122;11.560;2023-02-22T02:39:38;6.05;;;2.80;;
23496;SDS011;11925;48.122;11.560;2023-02-22T02:42:14;5.68;;;2.30;;
23496;SDS011;11925;48.122;11.560;2023-02-22T02:44:48;3.97;;;2.20;;
23496;SDS011;11925;48.122;11.560;2023-02-22T02:47:24;4.35;;;2.47;;
23496;SDS011;11925;48.122;11.560;2023-02-22T02:50:00;4.30;;;2.38;;
23496;SDS011;11925;48.122;11.560;2023-02-22T02:52:32;4.13;;;2.20;;
23496;SDS011;11925;48.122;11.560;2023-02-22T02:55:02;3.92;;;2.05;;
23496;SDS011;11925;48.122;11.560;2023-02-22T02:57:33;3.45;;;2.20;;
23496;SDS011;11925;48.122;11.560;2023-02-22T03:00:01;4.18;;;2.40;;
23496;SDS011;11925;48.122;11.560;2023-02-22T03:02:54;4.97;;;2.35;;
23496;SDS011;11925;48.122;11.560;2023-02-22T03:05:36;4.00;;;2.20;;
23496;SDS011;11925;48.122;11.560;2023-02-22T03:08:28;4.38;;;2.42;;
23496;SDS011;11925;48.122;11.560;2023-02-22T03:11:05;3.45;;;1.90;;
23496;SDS011;11925;48.122;11.560;2023-02-22T03:13:44;2.88;;;1.80;;
23496;SDS011;11925;48.122;11.560;2023-02-22T03:16:24;4.28;;;2.22;;
23496;SDS011;11925;48.122;11.560;2023-02-22T03:19:02;4.50;;;2.20;;
23496;SDS011;11925;48.122;11.560;2023-02-22T03:21:39;4.88;;;2.17;;
23496;SDS011;11925;48.122;11.560;2023-02-22T03:24:15;4.13;;;2.35;;
23496;SDS011;11925;48.122;11.560;2023-02-22T03:26:47;3.33;;;1.90;;
23496;SDS011;11925;48.122;11.560;2023-02-22T03:29:20;3.83;;;2.10;;
23496;SDS011;11925;48.122;11.560;2023-02-22T03:34:31;3.95;;;1.90;;
23496;SDS011;11925;48.122;11.560;2023-02-22T03:37:05;2.83;;;1.83;;
23496;SDS011;11925;48.122;11.560;2023-02-22T03:39:40;3.70;;;1.85;;
23496;SDS011;11925;48.122;11.560;2023-02-22T03:42:12;3.00;;;1.80;;
23496;SDS011;11925;48.122;11.560;2023-02-22T03:44:44;4.93;;;2.17;;
23496;SDS011;11925;48.122;11.560;2023-02-22T03:47:15;7.63;;;2.33;;
23496;SDS011;11925;48.122;11.560;2023-02-22T03:49:51;4.18;;;2.05;;
23496;SDS011;11925;48.122;11.560;2023-02-22T03:52:24;4.43;;;2.20;;
23496;SDS011;11925;48.122;11.560;2023-02-22T03:54:52;3.15;;;2.00;;
23496;SDS011;11925;48.122;11.560;2023-02-22T03:57:23;4.43;;;2.22;;
23496;SDS011;11925;48.122;11.560;2023-02-22T04:00:02;4.78;;;2.28;;
23496;SDS011;11925;48.122;11.560;2023-02-22T04:02:39;4.53;;;2.38;;
23496;SDS011;11925;48.122;11.560;2023-02-22T04:05:14;3.17;;;2.00;;
23496;SDS011;11925;48.122;11.560;2023-02-22T04:07:43;5.07;;;2.17;;
23496;SDS011;11925;48.122;11.560;2023-02-22T04:10:14;5.18;;;2.20;;
23496;SDS011;11925;48.122;11.560;2023-02-22T04:12:43;5.63;;;2.20;;
23496;SDS011;11925;48.122;11.560;2023-02-22T04:15:13;5.38;;;2.97;;
23496;SDS011;11925;48.122;11.560;2023-02-22T04:17:43;5.18;;;2.63;;
23496;SDS011;11925;48.122;11.560;2023-02-22T04:20:15;3.47;;;2.25;;
23496;SDS011;11925;48.122;11.560;2023-02-22T04:22:54;4.00;;;2.42;;
23496;SDS011;11925;48.122;11.560;2023-02-22T04:28:15;3.58;;;2.05;;
23496;SDS011;11925;48.122;11.560;2023-02-22T04:30:57;4.22;;;2.40;;
23496;SDS011;11925;48.122;11.560;2023-02-22T04:33:27;5.20;;;2.20;;
23496;SDS011;11925;48.122;11.560;2023-02-22T04:35:56;3.65;;;1.90;;
23496;SDS011;11925;48.122;11.560;2023-02-22T04:38:25;4.95;;;2.60;;
23496;SDS011;11925;48.122;11.560;2023-02-22T04:40:56;3.60;;;2.08;;
23496;SDS011;11925;48.122;11.560;2023-02-22T04:43:25;4.22;;;2.15;;
23496;SDS011;11925;48.122;11.560;2023-02-22T04:46:02;3.88;;;2.20;;
23496;SDS011;11925;48.122;11.560;2023-02-22T04:48:31;5.53;;;2.75;;
23496;SDS011;11925;48.122;11.560;2023-02-22T04:51:00;4.65;;;2.38;;
23496;SDS011;11925;48.122;11.560;2023-02-22T04:53:30;6.00;;;2.30;;
23496;SDS011;11925;48.122;11.560;2023-02-22T04:55:58;3.53;;;2.53;;
23496;SDS011;11925;48.122;11.560;2023-02-22T04:58:27;5.28;;;2.20;;
23496;SDS011;11925;48.122;11.560;2023-02-22T05:00:57;4.45;;;2.40;;
23496;SDS011;11925;48.122;11.560;2023-02-22T05:03:26;6.18;;;2.15;;
23496;SDS011;11925;48.122;11.560;2023-02-22T05:05:54;5.70;;;2.53;;
23496;SDS011;11925;48.122;11.560;2023-02-22T05:08:24;6.95;;;2.90;;
23496;SDS011;11925;48.122;11.560;2023-02-22T05:10:52;19.58;;;8.18;;
23496;SDS011;11925;48.122;11.560;2023-02-22T05:13:20;13.43;;;5.65;;
23496;SDS011;11925;48.122;11.560;2023-02-22T05:15:48;10.60;;;4.68;;
23496;SDS011;11925;48.122;11.560;2023-02-22T05:18:17;11.02;;;3.83;;
23496;SDS011;11925;48.122;11.560;2023-02-22T05:20:45;8.60;;;3.30;;
23496;SDS011;11925;48.122;11.560;2023-02-22T05:23:13;6.95;;;3.05;;
23496;SDS011;11925;48.122;11.560;2023-02-22T05:25:43;6.32;;;2.70;;
23496;SDS011;11925;48.122;11.560;2023-02-22T05:28:12;6.18;;;2.40;;
23496;SDS011;11925;48.122;11.560;2023-02-22T05:30:42;6.00;;;2.38;;
23496;SDS011;11925;48.122;11.560;2023-02-22T05:33:10;6.68;;;2.50;;
23496;SDS011;11925;48.122;11.560;2023-02-22T05:35:39;9.10;;;2.20;;
23496;SDS011;11925;48.122;11.560;2023-02-22T05:38:08;5.18;;;2.28;;
23496;SDS011;11925;48.122;11.560;2023-02-22T05:40:40;4.82;;;2.50;;
23496;SDS011;11925;48.122;11.560;2023-02-22T05:43:10;4.25;;;2.33;;
23496;SDS011;11925;48.122;11.560;2023-02-22T05:45:38;3.67;;;2.38;;
23496;SDS011;11925;48.122;11.560;2023-02-22T05:48:07;4.78;;;2.30;;
23496;SDS011;11925;48.122;11.560;2023-02-22T05:50:35;4.45;;;2.10;;
23496;SDS011;11925;48.122;11.560;2023-02-22T05:53:04;6.50;;;2.42;;
23496;SDS011;11925;48.122;11.560;2023-02-22T05:55:32;7.57;;;2.47;;
23496;SDS011;11925;48.122;11.560;2023-02-22T05:58:02;5.88;;;2.70;;
23496;SDS011;11925;48.122;11.560;2023-02-22T06:00:31;5.60;;;2.40;;
23496;SDS011;11925;48.122;11.560;2023-02-22T06:03:00;4.68;;;2.30;;
23496;SDS011;11925;48.122;11.560;2023-02-22T06:05:31;8.82;;;2.58;;
23496;SDS011;11925;48.122;11.560;2023-02-22T06:07:59;5.07;;;2.63;;
23496;SDS011;11925;48.122;11.560;2023-02-22T06:10:28;7.50;;;2.60;;
23496;SDS011;11925;48.122;11.560;2023-02-22T06:12:57;5.65;;;2.22;;
23496;SDS011;11925;48.122;11.560;2023-02-22T06:15:28;5.40;;;2.50;;
23496;SDS011;11925;48.122;11.560;2023-02-22T06:17:56;5.90;;;2.47;;
23496;SDS011;11925;48.122;11.560;2023-02-22T06:20:26;6.97;;;2.70;;
23496;SDS011;11925;48.122;11.560;2023-02-22T06:22:58;5.72;;;2.80;;
23496;SDS011;11925;48.122;11.560;2023-02-22T06:25:27;5.15;;;2.55;;
23496;SDS011;11925;48.122;11.560;2023-02-22T06:27:58;4.50;;;2.42;;
23496;SDS011;11925;48.122;11.560;2023-02-22T06:30:29;7.25;;;2.65;;
23496;SDS011;11925;48.122;11.560;2023-02-22T06:32:57;6.20;;;2.80;;
23496;SDS011;11925;48.122;11.560;2023-02-22T06:35:25;8.02;;;2.50;;
23496;SDS011;11925;48.122;11.560;2023-02-22T06:37:54;4.07;;;2.40;;
23496;SDS011;11925;48.122;11.560;2023-02-22T06:40:22;7.75;;;3.20;;
23496;SDS011;11925;48.122;11.560;2023-02-22T06:42:54;11.68;;;3.38;;
23496;SDS011;11925;48.122;11.560;2023-02-22T06:45:23;7.72;;;2.85;;
23496;SDS011;11925;48.122;11.560;2023-02-22T06:47:53;7.88;;;3.17;;
23496;SDS011;11925;48.122;11.560;2023-02-22T06:50:22;7.95;;;2.75;;
23496;SDS011;11925;48.122;11.560;2023-02-22T06:52:52;5.80;;;2.83;;
23496;SDS011;11925;48.122;11.560;2023-02-22T06:55:21;5.70;;;2.47;;
23496;SDS011;11925;48.122;11.560;2023-02-22T06:57:50;4.22;;;2.58;;
23496;SDS011;11925;48.122;11.560;2023-02-22T07:00:20;6.90;;;3.17;;
23496;SDS011;11925;48.122;11.560;2023-02-22T07:02:50;8.40;;;3.43;;
23496;SDS011;11925;48.122;11.560;2023-02-22T07:05:20;5.10;;;2.92;;
23496;SDS011;11925;48.122;11.560;2023-02-22T07:07:50;6.80;;;2.97;;
23496;SDS011;11925;48.122;11.560;2023-02-22T07:10:21;4.70;;;2.70;;
23496;SDS011;11925;48.122;11.560;2023-02-22T07:12:50;5.70;;;3.13;;
23496;SDS011;11925;48.122;11.560;2023-02-22T07:15:19;5.78;;;3.17;;
23496;SDS011;11925;48.122;11.560;2023-02-22T07:17:49;7.07;;;3.17;;
23496;SDS011;11925;48.122;11.560;2023-02-22T07:20:18;7.45;;;3.17;;
23496;SDS011;11925;48.122;11.560;2023-02-22T07:22:48;7.47;;;3.10;;
23496;SDS011;11925;48.122;11.560;2023-02-22T07:25:17;5.07;;;2.92;;
23496;SDS011;11925;48.122;11.560;2023-02-22T07:27:46;9.23;;;3.25;;
23496;SDS011;11925;48.122;11.560;2023-02-22T07:30:15;6.95;;;2.90;;
23496;SDS011;11925;48.122;11.560;2023-02-22T07:32:45;7.65;;;3.22;;
23496;SDS011;11925;48.122;11.560;2023-02-22T07:35:14;7.13;;;3.50;;
23496;SDS011;11925;48.122;11.560;2023-02-22T07:37:43;8.93;;;3.58;;
23496;SDS011;11925;48.122;11.560;2023-02-22T07:40:15;8.05;;;3.25;;
23496;SDS011;11925;48.122;11.560;2023-02-22T07:42:51;10.38;;;3.72;;
23496;SDS011;11925;48.122;11.560;2023-02-22T07:45:21;6.32;;;3.13;;
23496;SDS011;11925;48.122;11.560;2023-02-22T07:47:50;7.10;;;3.15;;
23496;SDS011;11925;48.122;11.560;2023-02-22T07:50:18;6.60;;;3.47;;
23496;SDS011;11925;48.122;11.560;2023-02-22T07:52:49;9.02;;;3.50;;
23496;SDS011;11925;48.122;11.560;2023-02-22T07:55:21;7.35;;;3.08;;
23496;SDS011;11925;48.122;11.560;2023-02-22T07:57:51;7.43;;;3.50;;
23496;SDS011;11925;48.122;11.560;2023-02-22T08:00:22;6.07;;;3.10;;
23496;SDS011;11925;48.122;11.560;2023-02-22T08:02:52;7.72;;;3.28;;
23496;SDS011;11925;48.122;11.560;2023-02-22T08:05:22;5.90;;;3.30;;
23496;SDS011;11925;48.122;11.560;2023-02-22T08:07:51;8.73;;;3.40;;
23496;SDS011;11925;48.122;11.560;2023-02-22T08:10:21;8.65;;;3.40;;
23496;SDS011;11925;48.122;11.560;2023-02-22T08:12:51;3.95;;;2.58;;
23496;SDS011;11925;48.122;11.560;2023-02-22T08:15:21;8.57;;;2.78;;
23496;SDS011;11925;48.122;11.560;2023-02-22T08:17:50;7.03;;;2.67;;
23496;SDS011;11925;48.122;11.560;2023-02-22T08:20:20;8.48;;;2.95;;
23496;SDS011;11925;48.122;11.560;2023-02-22T08:22:49;6.35;;;2.60;;
23496;SDS011;11925;48.122;11.560;2023-02-22T08:25:19;5.88;;;2.70;;
23496;SDS011;11925;48.122;11.560;2023-02-22T08:27:50;6.28;;;2.67;;
23496;SDS011;11925;48.122;11.560;2023-02-22T08:30:24;5.57;;;2.55;;
23496;SDS011;11925;48.122;11.560;2023-02-22T08:32:52;6.97;;;2.95;;
23496;SDS011;11925;48.122;11.560;2023-02-22T08:35:21;4.95;;;2.20;;
23496;SDS011;11925;48.122;11.560;2023-02-22T08:37:51;4.28;;;2.42;;
23496;SDS011;11925;48.122;11.560;2023-02-22T08:40:22;5.82;;;2.65;;
23496;SDS011;11925;48.122;11.560;2023-02-22T08:42:53;6.03;;;2.47;;
23496;SDS011;11925;48.122;11.560;2023-02-22T08:45:21;6.68;;;2.33;;
23496;SDS011;11925;48.122;11.560;2023-02-22T08:47:49;6.97;;;2.28;;
23496;SDS011;11925;48.122;11.560;2023-02-22T08:50:18;4.40;;;2.42;;
23496;SDS011;11925;48.122;11.560;2023-02-22T08:52:48;8.68;;;2.80;;
23496;SDS011;11925;48.122;11.560;2023-02-22T08:55:18;4.90;;;2.08;;
23496;SDS011;11925;48.122;11.560;2023-02-22T08:57:49;5.90;;;2.43;;
23496;SDS011;11925;48.122;11.560;2023-02-22T09:00:18;4.00;;;2.22;;
23496;SDS011;11925;48.122;11.560;2023-02-22T09:02:50;6.20;;;2.00;;
23496;SDS011;11925;48.122;11.560;2023-02-22T09:05:18;4.85;;;2.25;;
23496;SDS011;11925;48.122;11.560;2023-02-22T09:07:47;4.63;;;2.33;;
23496;SDS011;11925;48.122;11.560;2023-02-22T09:10:16;5.35;;;2.25;;
23496;SDS011;11925;48.122;11.560;2023-02-22T09:12:46;4.57;;;2.63;;
23496;SDS011;11925;48.122;11.560;2023-02-22T09:15:16;3.30;;;2.17;;
23496;SDS011;11925;48.122;11.560;2023-02-22T09:17:45;5.82;;;2.42;;
23496;SDS011;11925;48.122;11.560;2023-02-22T09:20:13;4.55;;;2.13;;
23496;SDS011;11925;48.122;11.560;2023-02-22T09:22:45;5.68;;;2.45;;
23496;SDS011;11925;48.122;11.560;2023-02-22T09:25:14;5.22;;;2.50;;
23496;SDS011;11925;48.122;11.560;2023-02-22T09:27:46;5.28;;;2.25;;
23496;SDS011;11925;48.122;11.560;2023-02-22T09:30:18;6.82;;;2.40;;
23496;SDS011;11925;48.122;11.560;2023-02-22T09:32:51;4.55;;;1.85;;
23496;SDS011;11925;48.122;11.560;2023-02-22T09:35:20;4.30;;;2.10;;
23496;SDS011;11925;48.122;11.560;2023-02-22T09:37:54;4.28;;;2.05;;
23496;SDS011;11925;48.122;11.560;2023-02-22T09:40:23;5.30;;;2.20;;
23496;SDS011;11925;48.122;11.560;2023-02-22T09:42:59;4.55;;;2.00;;
23496;SDS011;11925;48.122;11.560;2023-02-22T09:45:36;6.32;;;2.10;;
23496;SDS011;11925;48.122;11.560;2023-02-22T09:48:13;6.18;;;2.50;;
23496;SDS011;11925;48.122;11.560;2023-02-22T09:50:48;5.30;;;2.15;;
23496;SDS011;11925;48.122;11.560;2023-02-22T09:53:21;3.15;;;2.10;;
23496;SDS011;11925;48.122;11.560;2023-02-22T09:55:55;6.07;;;2.08;;
23496;SDS011;11925;48.122;11.560;2023-02-22T09:58:30;5.95;;;3.13;;
23496;SDS011;11925;48.122;11.560;2023-02-22T10:01:06;5.05;;;2.00;;
23496;SDS011;11925;48.122;11.560;2023-02-22T10:03:48;3.90;;;2.03;;
23496;SDS011;11925;48.122;11.560;2023-02-22T10:06:18;3.65;;;1.88;;
23496;SDS011;11925;48.122;11.560;2023-02-22T10:08:50;7.43;;;2.13;;
23496;SDS011;11925;48.122;11.560;2023-02-22T10:11:27;4.30;;;1.65;;
23496;SDS011;11925;48.122;11.560;2023-02-22T10:14:14;3.28;;;1.40;;
23496;SDS011;11925;48.122;11.560;2023-02-22T10:16:59;8.88;;;1.67;;
23496;SDS011;11925;48.122;11.560;2023-02-22T10:19:34;4.85;;;1.50;;
23496;SDS011;11925;48.122;11.560;2023-02-22T10:22:15;4.43;;;1.38;;
23496;SDS011;11925;48.122;11.560;2023-02-22T10:25:04;3.83;;;1.75;;
23496;SDS011;11925;48.122;11.560;2023-02-22T10:27:38;3.53;;;1.48;;
23496;SDS011;11925;48.122;11.560;2023-02-22T10:30:13;3.00;;;1.40;;
23496;SDS011;11925;48.122;11.560;2023-02-22T10:32:53;5.10;;;1.42;;
23496;SDS011;11925;48.122;11.560;2023-02-22T10:35:26;3.08;;;1.30;;
23496;SDS011;11925;48.122;11.560;2023-02-22T10:37:57;4.80;;;1.42;;
23496;SDS011;11925;48.122;11.560;2023-02-22T10:40:30;2.30;;;1.40;;
23496;SDS011;11925;48.122;11.560;2023-02-22T10:43:02;2.72;;;1.25;;
23496;SDS011;11925;48.122;11.560;2023-02-22T10:45:32;3.88;;;1.38;;
23496;SDS011;11925;48.122;11.560;2023-02-22T10:48:04;2.43;;;1.30;;
23496;SDS011;11925;48.122;11.560;2023-02-22T10:50:38;3.53;;;1.40;;
23496;SDS011;11925;48.122;11.560;2023-02-22T10:53:07;2.38;;;1.42;;
23496;SDS011;11925;48.122;11.560;2023-02-22T10:56:04;2.90;;;1.45;;
23496;SDS011;11925;48.122;11.560;2023-02-22T10:58:38;2.85;;;1.55;;
23496;SDS011;11925;48.122;11.560;2023-02-22T11:01:20;5.82;;;1.60;;
23496;SDS011;11925;48.122;11.560;2023-02-22T11:03:56;5.00;;;1.40;;
23496;SDS011;11925;48.122;11.560;2023-02-22T11:06:31;3.55;;;1.25;;
23496;SDS011;11925;48.122;11.560;2023-02-22T11:09:04;4.57;;;1.60;;
23496;SDS011;11925;48.122;11.560;2023-02-22T11:11:36;6.50;;;1.63;;
23496;SDS011;11925;48.122;11.560;2023-02-22T11:14:07;3.25;;;1.23;;
23496;SDS011;11925;48.122;11.560;2023-02-22T11:16:37;1.90;;;1.10;;
23496;SDS011;11925;48.122;11.560;2023-02-22T11:19:15;3.40;;;1.20;;
23496;SDS011;11925;48.122;11.560;2023-02-22T11:21:46;2.10;;;1.20;;
23496;SDS011;11925;48.122;11.560;2023-02-22T11:24:19;2.20;;;1.23;;
23496;SDS011;11925;48.122;11.560;2023-02-22T11:29:21;3.80;;;1.38;;
23496;SDS011;11925;48.122;11.560;2023-02-22T11:31:54;3.58;;;1.30;;
23496;SDS011;11925;48.122;11.560;2023-02-22T11:34:25;3.65;;;1.17;;
23496;SDS011;11925;48.122;11.560;2023-02-22T11:36:57;3.92;;;1.05;;
23496;SDS011;11925;48.122;11.560;2023-02-22T11:39:43;3.00;;;1.08;;
23496;SDS011;11925;48.122;11.560;2023-02-22T11:42:19;1.92;;;1.10;;
23496;SDS011;11925;48.122;11.560;2023-02-22T11:44:52;2.55;;;1.20;;
23496;SDS011;11925;48.122;11.560;2023-02-22T11:47:44;2.90;;;1.20;;
23496;SDS011;11925;48.122;11.560;2023-02-22T11:50:27;3.97;;;1.25;;
23496;SDS011;11925;48.122;11.560;2023-02-22T11:53:01;3.35;;;1.23;;
23496;SDS011;11925;48.122;11.560;2023-02-22T11:58:18;1.63;;;0.93;;
23496;SDS011;11925;48.122;11.560;2023-02-22T12:01:01;4.70;;;1.23;;
23496;SDS011;11925;48.122;11.560;2023-02-22T12:03:48;1.73;;;0.75;;
23496;SDS011;11925;48.122;11.560;2023-02-22T12:06:29;2.67;;;1.30;;
23496;SDS011;11925;48.122;11.560;2023-02-22T12:09:08;3.63;;;1.00;;
23496;SDS011;11925;48.122;11.560;2023-02-22T12:11:42;2.50;;;1.10;;
23496;SDS011;11925;48.122;11.560;2023-02-22T12:14:25;2.92;;;0.95;;
23496;SDS011;11925;48.122;11.560;2023-02-22T12:17:05;2.50;;;1.25;;
23496;SDS011;11925;48.122;11.560;2023-02-22T12:19:41;2.42;;;1.00;;
23496;SDS011;11925;48.122;11.560;2023-02-22T12:22:14;1.88;;;1.17;;
23496;SDS011;11925;48.122;11.560;2023-02-22T12:24:47;3.13;;;1.20;;
23496;SDS011;11925;48.122;11.560;2023-02-22T12:27:34;2.05;;;0.90;;
23496;SDS011;11925;48.122;11.560;2023-02-22T12:30:09;3.05;;;0.90;;
23496;SDS011;11925;48.122;11.560;2023-02-22T12:32:42;2.38;;;0.90;;
23496;SDS011;11925;48.122;11.560;2023-02-22T12:35:15;1.25;;;0.93;;
23496;SDS011;11925;48.122;11.560;2023-02-22T12:37:52;1.58;;;0.75;;
23496;SDS011;11925;48.122;11.560;2023-02-22T12:40:29;1.77;;;0.80;;
23496;SDS011;11925;48.122;11.560;2023-02-22T12:43:03;2.42;;;0.90;;
23496;SDS011;11925;48.122;11.560;2023-02-22T12:45:38;2.38;;;1.27;;
23496;SDS011;11925;48.122;11.560;2023-02-22T12:48:24;2.88;;;1.20;;
23496;SDS011;11925;48.122;11.560;2023-02-22T12:51:01;2.85;;;1.38;;
23496;SDS011;11925;48.122;11.560;2023-02-22T12:53:39;3.03;;;1.10;;
23496;SDS011;11925;48.122;11.560;2023-02-22T12:56:14;5.35;;;1.13;;
23496;SDS011;11925;48.122;11.560;2023-02-22T12:58:48;1.75;;;1.00;;
23496;SDS011;11925;48.122;11.560;2023-02-22T13:01:22;1.88;;;1.00;;
23496;SDS011;11925;48.122;11.560;2023-02-22T13:03:55;1.10;;;0.75;;
23496;SDS011;11925;48.122;11.560;2023-02-22T13:06:40;2.55;;;0.90;;
23496;SDS011;11925;48.122;11.560;2023-02-22T13:09:25;1.55;;;0.90;;
23496;SDS011;11925;48.122;11.560;2023-02-22T13:12:06;1.85;;;0.95;;
23496;SDS011;11925;48.122;11.560;2023-02-22T13:14:41;1.95;;;0.95;;
23496;SDS011;11925;48.122;11.560;2023-02-22T13:17:25;2.03;;;1.05;;
23496;SDS011;11925;48.122;11.560;2023-02-22T13:20:06;1.70;;;0.80;;
23496;SDS011;11925;48.122;11.560;2023-02-22T13:22:41;1.27;;;0.70;;
23496;SDS011;11925;48.122;11.560;2023-02-22T13:25:17;1.48;;;0.60;;
23496;SDS011;11925;48.122;11.560;2023-02-22T13:27:50;1.42;;;0.80;;
23496;SDS011;11925;48.122;11.560;2023-02-22T13:30:23;0.93;;;0.55;;
23496;SDS011;11925;48.122;11.560;2023-02-22T13:33:05;2.10;;;0.80;;
23496;SDS011;11925;48.122;11.560;2023-02-22T13:35:48;0.80;;;0.50;;
23496;SDS011;11925;48.122;11.560;2023-02-22T13:38:34;0.95;;;0.65;;
23496;SDS011;11925;48.122;11.560;2023-02-22T13:41:35;1.25;;;0.60;;
23496;SDS011;11925;48.122;11.560;2023-02-22T13:50:30;0.80;;;0.50;;
23496;SDS011;11925;48.122;11.560;2023-02-22T13:53:10;0.75;;;0.60;;
23496;SDS011;11925;48.122;11.560;2023-02-22T13:55:45;1.00;;;0.55;;
23496;SDS011;11925;48.122;11.560;2023-02-22T13:58:19;1.20;;;0.50;;
23496;SDS011;11925;48.122;11.560;2023-02-22T14:00:49;0.70;;;0.43;;
23496;SDS011;11925;48.122;11.560;2023-02-22T14:03:29;1.30;;;0.60;;
23496;SDS011;11925;48.122;11.560;2023-02-22T14:06:07;0.73;;;0.50;;
23496;SDS011;11925;48.122;11.560;2023-02-22T14:08:38;1.27;;;0.50;;
23496;SDS011;11925;48.122;11.560;2023-02-22T14:14:23;1.95;;;0.50;;
23496;SDS011;11925;48.122;11.560;2023-02-22T14:19:59;1.17;;;0.40;;
23496;SDS011;11925;48.122;11.560;2023-02-22T14:22:40;1.35;;;0.50;;
23496;SDS011;11925;48.122;11.560;2023-02-22T14:25:30;0.65;;;0.32;;
23496;SDS011;11925;48.122;11.560;2023-02-22T14:28:00;0.60;;;0.50;;
23496;SDS011;11925;48.122;11.560;2023-02-22T14:30:31;1.23;;;0.43;;
23496;SDS011;11925;48.122;11.560;2023-02-22T14:33:03;1.02;;;0.50;;
23496;SDS011;11925;48.122;11.560;2023-02-22T14:36:21;1.48;;;1.27;;
23496;SDS011;11925;48.122;11.560;2023-02-22T14:38:53;1.45;;;0.50;;
23496;SDS011;11925;48.122;11.560;2023-02-22T14:43:54;1.70;;;0.60;;
23496;SDS011;11925;48.122;11.560;2023-02-22T14:46:25;1.63;;;0.50;;
23496;SDS011;11925;48.122;11.560;2023-02-22T14:48:57;1.77;;;0.50;;
23496;SDS011;11925;48.122;11.560;2023-02-22T14:51:32;0.75;;;0.47;;
23496;SDS011;11925;48.122;11.560;2023-02-22T14:54:08;1.63;;;0.50;;
23496;SDS011;11925;48.122;11.560;2023-02-22T14:56:43;0.63;;;0.45;;
23496;SDS011;11925;48.122;11.560;2023-02-22T14:59:18;1.80;;;0.80;;
23496;SDS011;11925;48.122;11.560;2023-02-22T15:01:56;2.15;;;0.80;;
23496;SDS011;11925;48.122;11.560;2023-02-22T15:04:37;3.17;;;0.82;;
23496;SDS011;11925;48.122;11.560;2023-02-22T15:07:18;3.17;;;0.80;;
23496;SDS011;11925;48.122;11.560;2023-02-22T15:10:06;1.35;;;0.98;;
23496;SDS011;11925;48.122;11.560;2023-02-22T15:12:56;2.47;;;1.02;;
23496;SDS011;11925;48.122;11.560;2023-02-22T15:15:37;2.05;;;0.98;;
23496;SDS011;11925;48.122;11.560;2023-02-22T15:18:21;2.40;;;0.73;;
23496;SDS011;11925;48.122;11.560;2023-02-22T15:20:54;3.28;;;1.10;;
23496;SDS011;11925;48.122;11.560;2023-02-22T15:23:24;3.92;;;1.20;;
23496;SDS011;11925;48.122;11.560;2023-02-22T15:25:56;3.40;;;1.33;;
23496;SDS011;11925;48.122;11.560;2023-02-22T15:28:25;2.80;;;1.27;;
23496;SDS011;11925;48.122;11.560;2023-02-22T15:33:52;4.72;;;1.27;;
23496;SDS011;11925;48.122;11.560;2023-02-22T15:36:23;3.53;;;1.30;;
23496;SDS011;11925;48.122;11.560;2023-02-22T15:38:53;3.80;;;1.30;;
23496;SDS011;11925;48.122;11.560;2023-02-22T15:41:23;2.35;;;1.20;;
23496;SDS011;11925;48.122;11.560;2023-02-22T15:43:58;2.55;;;1.58;;